createdAt,value
2019-02-07T00:00:34.849Z,7.25
2019-02-07T00:01:34.819Z,7.26
2019-02-07T00:02:34.799Z,7.24
2019-02-07T00:03:34.792Z,7.22
2019-02-07T00:04:34.782Z,7.21
2019-02-07T00:05:34.795Z,7.18
2019-02-07T00:06:34.783Z,7.22
2019-02-07T00:07:34.751Z,7.21
2019-02-07T00:08:34.732Z,7.28
2019-02-07T00:09:34.719Z,7.19
2019-02-07T00:10:34.722Z,7.16
2019-02-07T00:11:34.731Z,7.22
2019-02-07T00:12:34.691Z,7.21
2019-02-07T00:13:34.683Z,7.18
2019-02-07T00:14:39.826Z,7.18
2019-02-07T00:15:36.646Z,7.18
2019-02-07T00:16:34.794Z,7.16
2019-02-07T00:17:34.684Z,7.21
2019-02-07T00:18:34.633Z,7.15
2019-02-07T00:19:34.614Z,7.26
2019-02-07T00:20:34.598Z,7.29
2019-02-07T00:21:34.615Z,7.29
2019-02-07T00:22:34.578Z,7.28
2019-02-07T00:23:34.578Z,7.36
2019-02-07T00:24:42.598Z,7.28
2019-02-07T00:25:35.542Z,7.36
2019-02-07T00:26:34.561Z,7.36
2019-02-07T00:27:34.526Z,7.37
2019-02-07T00:28:34.518Z,7.29
2019-02-07T00:29:34.504Z,7.34
2019-02-07T00:30:34.491Z,7.29
2019-02-07T00:31:34.501Z,7.26
2019-02-07T00:32:34.479Z,7.24
2019-02-07T00:33:34.453Z,7.26
2019-02-07T00:34:34.445Z,7.21
2019-02-07T00:35:34.434Z,7.18
2019-02-07T00:36:34.496Z,7.16
2019-02-07T00:37:34.415Z,7.15
2019-02-07T00:38:34.404Z,7.16
2019-02-07T00:39:34.396Z,7.11
2019-02-07T00:40:34.376Z,7.11
2019-02-07T00:41:34.404Z,7.04
2019-02-07T00:42:34.388Z,7.06
2019-02-07T00:43:34.341Z,7.16
2019-02-07T00:44:34.333Z,7.15
2019-02-07T00:45:34.320Z,7.13
2019-02-07T00:46:34.329Z,7.10
2019-02-07T00:47:34.323Z,7.10
2019-02-07T00:48:34.306Z,7.18
2019-02-07T00:49:34.279Z,7.11
2019-02-07T00:50:34.271Z,7.15
2019-02-07T00:51:34.251Z,7.11
2019-02-07T00:52:34.276Z,7.15
2019-02-07T00:53:34.229Z,7.13
2019-02-07T00:54:34.226Z,7.16
2019-02-07T00:55:34.207Z,7.19
2019-02-07T00:56:34.204Z,7.18
2019-02-07T00:57:34.198Z,7.16
2019-02-07T00:58:34.205Z,7.11
2019-02-07T00:59:34.171Z,7.16
2019-02-07T01:00:34.149Z,7.18
2019-02-07T01:01:34.140Z,7.16
2019-02-07T01:02:34.132Z,7.22
2019-02-07T01:03:34.145Z,7.15
2019-02-07T01:04:34.109Z,7.07
2019-02-07T01:05:34.098Z,7.18
2019-02-07T01:06:34.089Z,7.18
2019-02-07T01:07:34.072Z,7.13
2019-02-07T01:08:34.088Z,7.16
2019-02-07T01:09:34.051Z,7.18
2019-02-07T01:10:34.044Z,7.18
2019-02-07T01:11:34.027Z,7.15
2019-02-07T01:12:34.018Z,7.18
2019-02-07T01:13:34.046Z,7.16
2019-02-07T01:14:33.995Z,7.11
2019-02-07T01:15:33.983Z,7.18
2019-02-07T01:16:33.976Z,7.11
2019-02-07T01:17:33.963Z,7.18
2019-02-07T01:18:33.976Z,7.16
2019-02-07T01:19:33.938Z,7.03
2019-02-07T01:20:33.928Z,7.10
2019-02-07T01:21:33.927Z,7.11
2019-02-07T01:22:33.918Z,7.13
2019-02-07T01:23:33.920Z,7.18
2019-02-07T01:24:33.896Z,7.10
2019-02-07T01:25:33.893Z,7.04
2019-02-07T01:26:33.882Z,7.11
2019-02-07T01:27:33.851Z,7.15
2019-02-07T01:28:33.862Z,7.13
2019-02-07T01:29:33.833Z,7.15
2019-02-07T01:30:33.826Z,7.16
2019-02-07T01:31:33.810Z,7.18
2019-02-07T01:32:33.794Z,7.11
2019-02-07T01:33:33.810Z,7.18
2019-02-07T01:34:33.774Z,7.18
2019-02-07T01:35:33.765Z,7.15
2019-02-07T01:36:33.755Z,7.15
2019-02-07T01:37:33.749Z,7.10
2019-02-07T01:38:33.757Z,7.08
2019-02-07T01:39:33.756Z,7.06
2019-02-07T01:40:33.704Z,7.16
2019-02-07T01:41:33.699Z,7.10
2019-02-07T01:42:33.688Z,7.10
2019-02-07T01:43:33.672Z,7.13
2019-02-07T01:44:33.688Z,7.10
2019-02-07T01:45:33.653Z,7.07
2019-02-07T01:46:33.649Z,7.07
2019-02-07T01:47:33.627Z,7.04
2019-02-07T01:48:33.618Z,7.15
2019-02-07T01:49:33.639Z,7.13
2019-02-07T01:50:33.598Z,7.08
2019-02-07T01:51:33.583Z,7.03
2019-02-07T01:52:33.572Z,7.13
2019-02-07T01:53:33.559Z,7.13
2019-02-07T01:54:33.575Z,7.06
2019-02-07T01:55:33.563Z,7.03
2019-02-07T01:56:33.525Z,7.03
2019-02-07T01:57:33.522Z,7.07
2019-02-07T01:58:33.503Z,7.06
2019-02-07T01:59:33.504Z,7.11
2019-02-07T02:00:33.514Z,7.08
2019-02-07T02:01:33.469Z,7.08
2019-02-07T02:02:33.461Z,6.96
2019-02-07T02:03:33.449Z,7.10
2019-02-07T02:04:33.448Z,6.96
2019-02-07T02:05:33.455Z,6.93
2019-02-07T02:06:33.414Z,6.96
2019-02-07T02:07:33.420Z,6.83
2019-02-07T02:08:33.408Z,6.85
2019-02-07T02:09:33.390Z,6.74
2019-02-07T02:10:33.400Z,6.79
2019-02-07T02:11:33.367Z,6.74
2019-02-07T02:12:33.367Z,6.75
2019-02-07T02:13:33.343Z,6.75
2019-02-07T02:14:33.339Z,6.64
2019-02-07T02:15:33.344Z,6.65
2019-02-07T02:16:34.102Z,6.56
2019-02-07T02:17:33.298Z,6.64
2019-02-07T02:18:33.283Z,6.55
2019-02-07T02:19:33.274Z,6.47
2019-02-07T02:20:33.410Z,6.45
2019-02-07T02:21:33.247Z,6.46
2019-02-07T02:22:33.237Z,6.47
2019-02-07T02:23:33.226Z,6.35
2019-02-07T02:24:33.218Z,6.38
2019-02-07T02:25:33.231Z,6.45
2019-02-07T02:26:33.191Z,6.37
2019-02-07T02:27:33.181Z,6.32
2019-02-07T02:28:33.172Z,6.35
2019-02-07T02:29:33.159Z,6.28
2019-02-07T02:30:33.146Z,6.34
2019-02-07T02:31:33.159Z,6.37
2019-02-07T02:32:33.122Z,6.19
2019-02-07T02:33:33.123Z,6.32
2019-02-07T02:34:33.099Z,6.18
2019-02-07T02:35:33.096Z,6.21
2019-02-07T02:36:33.102Z,6.16
2019-02-07T02:37:33.064Z,6.18
2019-02-07T02:38:33.065Z,6.06
2019-02-07T02:39:33.042Z,6.12
2019-02-07T02:40:33.030Z,6.02
2019-02-07T02:41:33.051Z,6.00
2019-02-07T02:42:33.014Z,6.03
2019-02-07T02:43:33.002Z,6.00
2019-02-07T02:44:32.995Z,5.91
2019-02-07T02:45:37.657Z,5.87
2019-02-07T02:46:33.992Z,5.91
2019-02-07T02:47:32.953Z,5.84
2019-02-07T02:48:32.944Z,5.88
2019-02-07T02:49:32.935Z,5.80
2019-02-07T02:50:32.918Z,5.77
2019-02-07T02:51:32.907Z,5.77
2019-02-07T02:52:32.926Z,5.87
2019-02-07T02:53:32.890Z,5.82
2019-02-07T02:54:32.877Z,5.80
2019-02-07T02:55:32.865Z,5.73
2019-02-07T02:56:32.899Z,5.70
2019-02-07T02:57:32.839Z,5.75
2019-02-07T02:58:32.832Z,5.72
2019-02-07T02:59:32.829Z,5.77
2019-02-07T03:00:32.805Z,5.75
2019-02-07T03:01:32.802Z,5.75
2019-02-07T03:02:32.803Z,5.76
2019-02-07T03:03:32.772Z,5.70
2019-02-07T03:04:32.761Z,5.75
2019-02-07T03:05:32.749Z,5.80
2019-02-07T03:06:32.743Z,5.80
2019-02-07T03:07:32.752Z,5.79
2019-02-07T03:08:32.725Z,5.70
2019-02-07T03:09:34.641Z,5.73
2019-02-07T03:10:32.694Z,5.70
2019-02-07T03:11:32.683Z,5.72
2019-02-07T03:12:32.706Z,5.70
2019-02-07T03:13:32.658Z,5.72
2019-02-07T03:14:32.654Z,5.73
2019-02-07T03:15:32.641Z,5.67
2019-02-07T03:16:32.624Z,5.69
2019-02-07T03:17:32.640Z,5.67
2019-02-07T03:18:32.608Z,5.76
2019-02-07T03:19:32.593Z,5.70
2019-02-07T03:20:32.584Z,5.79
2019-02-07T03:21:32.566Z,5.76
2019-02-07T03:22:32.606Z,5.75
2019-02-07T03:23:32.570Z,5.80
2019-02-07T03:24:32.531Z,5.70
2019-02-07T03:25:32.519Z,5.72
2019-02-07T03:26:32.511Z,5.65
2019-02-07T03:27:32.499Z,5.67
2019-02-07T03:28:32.509Z,5.67
2019-02-07T03:29:32.478Z,5.65
2019-02-07T03:30:32.480Z,5.72
2019-02-07T03:31:32.454Z,5.69
2019-02-07T03:32:32.514Z,5.73
2019-02-07T03:33:32.481Z,5.69
2019-02-07T03:34:32.429Z,5.72
2019-02-07T03:35:32.406Z,5.70
2019-02-07T03:36:32.405Z,5.61
2019-02-07T03:37:32.399Z,5.67
2019-02-07T03:38:32.374Z,5.67
2019-02-07T03:39:32.401Z,5.61
2019-02-07T03:40:32.356Z,5.59
2019-02-07T03:41:32.343Z,5.57
2019-02-07T03:42:32.346Z,5.65
2019-02-07T03:43:32.357Z,5.62
2019-02-07T03:44:32.305Z,5.70
2019-02-07T03:45:32.295Z,5.66
2019-02-07T03:46:32.292Z,5.72
2019-02-07T03:47:32.284Z,5.65
2019-02-07T03:48:32.282Z,5.70
2019-02-07T03:49:32.278Z,5.70
2019-02-07T03:50:32.237Z,5.70
2019-02-07T03:51:32.228Z,5.72
2019-02-07T03:52:32.214Z,5.67
2019-02-07T03:53:32.206Z,5.70
2019-02-07T03:54:32.215Z,5.59
2019-02-07T03:55:32.188Z,5.79
2019-02-07T03:56:32.172Z,5.62
2019-02-07T03:57:32.160Z,5.67
2019-02-07T03:58:32.159Z,5.66
2019-02-07T03:59:32.159Z,5.62
2019-02-07T04:00:32.124Z,5.66
2019-02-07T04:01:32.117Z,5.75
2019-02-07T04:02:32.101Z,5.65
2019-02-07T04:03:32.091Z,5.70
2019-02-07T04:04:32.109Z,5.73
2019-02-07T04:05:32.070Z,5.73
2019-02-07T04:06:32.059Z,5.76
2019-02-07T04:07:32.045Z,5.73
2019-02-07T04:08:32.037Z,5.73
2019-02-07T04:09:32.053Z,5.72
2019-02-07T04:10:32.037Z,5.73
2019-02-07T04:11:32.001Z,5.75
2019-02-07T04:12:31.993Z,5.79
2019-02-07T04:13:31.984Z,5.75
2019-02-07T04:14:31.991Z,5.72
2019-02-07T04:15:31.986Z,5.79
2019-02-07T04:16:32.348Z,5.72
2019-02-07T04:17:31.947Z,5.79
2019-02-07T04:18:31.925Z,5.76
2019-02-07T04:19:31.910Z,5.75
2019-02-07T04:20:31.946Z,5.80
2019-02-07T04:21:31.888Z,5.76
2019-02-07T04:22:31.882Z,5.79
2019-02-07T04:23:31.887Z,5.82
2019-02-07T04:24:31.854Z,5.80
2019-02-07T04:25:31.867Z,5.76
2019-02-07T04:26:31.835Z,5.73
2019-02-07T04:27:31.831Z,5.82
2019-02-07T04:28:31.827Z,5.80
2019-02-07T04:29:31.797Z,5.77
2019-02-07T04:30:31.822Z,5.82
2019-02-07T04:31:31.785Z,5.82
2019-02-07T04:32:31.765Z,5.80
2019-02-07T04:33:31.771Z,5.80
2019-02-07T04:34:31.746Z,5.75
2019-02-07T04:35:31.771Z,5.79
2019-02-07T04:36:31.719Z,5.82
2019-02-07T04:37:31.722Z,5.79
2019-02-07T04:38:31.706Z,5.80
2019-02-07T04:39:31.693Z,5.76
2019-02-07T04:40:31.712Z,5.80
2019-02-07T04:41:31.659Z,5.90
2019-02-07T04:42:31.650Z,5.79
2019-02-07T04:43:31.641Z,5.84
2019-02-07T04:44:31.635Z,5.88
2019-02-07T04:45:31.619Z,5.87
2019-02-07T04:46:31.654Z,5.88
2019-02-07T04:47:31.601Z,5.82
2019-02-07T04:48:31.614Z,5.77
2019-02-07T04:49:31.582Z,5.84
2019-02-07T04:50:31.578Z,5.82
2019-02-07T04:51:31.560Z,5.79
2019-02-07T04:52:31.570Z,5.84
2019-02-07T04:53:31.529Z,5.77
2019-02-07T04:54:31.523Z,5.87
2019-02-07T04:55:31.510Z,5.90
2019-02-07T04:56:31.527Z,5.88
2019-02-07T04:57:31.526Z,5.90
2019-02-07T04:58:31.476Z,5.82
2019-02-07T04:59:31.468Z,5.84
2019-02-07T05:00:31.455Z,5.93
2019-02-07T05:01:31.476Z,5.87
2019-02-07T05:02:31.432Z,5.95
2019-02-07T05:03:31.427Z,5.94
2019-02-07T05:04:31.438Z,5.87
2019-02-07T05:05:31.404Z,5.95
2019-02-07T05:06:31.424Z,5.95
2019-02-07T05:07:31.410Z,5.90
2019-02-07T05:08:31.392Z,5.95
2019-02-07T05:09:31.382Z,5.94
2019-02-07T05:10:31.340Z,5.94
2019-02-07T05:11:31.334Z,6.00
2019-02-07T05:12:31.346Z,6.00
2019-02-07T05:13:31.307Z,6.00
2019-02-07T05:14:31.299Z,5.97
2019-02-07T05:15:31.287Z,6.00
2019-02-07T05:16:39.151Z,5.95
2019-02-07T05:17:32.282Z,5.98
2019-02-07T05:18:31.252Z,6.08
2019-02-07T05:19:31.238Z,6.12
2019-02-07T05:20:31.226Z,6.11
2019-02-07T05:21:31.245Z,6.09
2019-02-07T05:22:31.204Z,6.15
2019-02-07T05:23:31.225Z,6.09
2019-02-07T05:24:31.212Z,6.09
2019-02-07T05:25:31.168Z,6.08
2019-02-07T05:26:31.159Z,6.06
2019-02-07T05:27:31.152Z,6.08
2019-02-07T05:28:31.158Z,6.08
2019-02-07T05:29:31.123Z,6.12
2019-02-07T05:30:31.110Z,6.08
2019-02-07T05:31:31.103Z,6.11
2019-02-07T05:32:31.095Z,6.08
2019-02-07T05:33:31.112Z,6.13
2019-02-07T05:34:31.090Z,6.15
2019-02-07T05:35:31.055Z,6.05
2019-02-07T05:36:31.048Z,6.11
2019-02-07T05:37:31.035Z,6.16
2019-02-07T05:38:31.044Z,6.21
2019-02-07T05:39:31.106Z,6.15
2019-02-07T05:40:31.000Z,6.12
2019-02-07T05:41:31.033Z,6.08
2019-02-07T05:42:31.006Z,6.19
2019-02-07T05:43:30.970Z,6.11
2019-02-07T05:44:30.990Z,6.13
2019-02-07T05:45:30.943Z,6.12
2019-02-07T05:46:30.936Z,6.25
2019-02-07T05:47:30.935Z,6.19
2019-02-07T05:48:30.912Z,6.24
2019-02-07T05:49:30.914Z,6.16
2019-02-07T05:50:30.922Z,6.18
2019-02-07T05:51:30.910Z,6.19
2019-02-07T05:52:30.867Z,6.30
2019-02-07T05:53:30.861Z,6.25
2019-02-07T05:54:30.859Z,6.16
2019-02-07T05:55:30.873Z,6.18
2019-02-07T05:56:30.829Z,6.32
2019-02-07T05:57:30.814Z,6.24
2019-02-07T05:58:30.804Z,6.28
2019-02-07T05:59:30.809Z,6.16
2019-02-07T06:00:30.776Z,6.30
2019-02-07T06:01:30.802Z,6.28
2019-02-07T06:02:30.755Z,6.30
2019-02-07T06:03:30.741Z,6.32
2019-02-07T06:04:30.737Z,6.25
2019-02-07T06:05:30.742Z,6.24
2019-02-07T06:06:30.713Z,6.31
2019-02-07T06:07:30.693Z,6.35
2019-02-07T06:08:30.683Z,6.34
2019-02-07T06:09:30.679Z,6.37
2019-02-07T06:10:30.697Z,6.27
2019-02-07T06:11:30.680Z,6.30
2019-02-07T06:12:30.640Z,6.31
2019-02-07T06:13:30.626Z,6.31
2019-02-07T06:14:30.614Z,6.31
2019-02-07T06:15:30.634Z,6.30
2019-02-07T06:16:30.595Z,6.42
2019-02-07T06:17:30.578Z,6.43
2019-02-07T06:18:30.570Z,6.42
2019-02-07T06:19:30.561Z,6.40
2019-02-07T06:20:30.569Z,6.40
2019-02-07T06:21:30.594Z,6.34
2019-02-07T06:22:30.539Z,6.46
2019-02-07T06:23:30.513Z,6.40
2019-02-07T06:24:30.512Z,6.37
2019-02-07T06:25:30.500Z,6.43
2019-02-07T06:26:30.507Z,6.47
2019-02-07T06:27:30.492Z,6.45
2019-02-07T06:28:30.455Z,6.40
2019-02-07T06:29:30.444Z,6.49
2019-02-07T06:30:30.431Z,6.53
2019-02-07T06:31:30.453Z,6.42
2019-02-07T06:32:30.419Z,6.52
2019-02-07T06:33:30.408Z,6.43
2019-02-07T06:34:30.393Z,6.46
2019-02-07T06:35:30.377Z,6.49
2019-02-07T06:36:30.396Z,6.46
2019-02-07T06:37:30.362Z,6.46
2019-02-07T06:38:30.348Z,6.52
2019-02-07T06:39:30.333Z,6.52
2019-02-07T06:40:30.370Z,6.47
2019-02-07T06:41:30.308Z,6.47
2019-02-07T06:42:30.304Z,6.50
2019-02-07T06:43:30.296Z,6.47
2019-02-07T06:44:30.281Z,6.52
2019-02-07T06:45:30.355Z,6.47
2019-02-07T06:46:30.298Z,6.46
2019-02-07T06:47:30.273Z,6.57
2019-02-07T06:48:30.238Z,6.60
2019-02-07T06:49:30.227Z,6.57
2019-02-07T06:50:30.223Z,6.55
2019-02-07T06:51:30.194Z,6.61
2019-02-07T06:52:30.242Z,6.57
2019-02-07T06:53:30.171Z,6.63
2019-02-07T06:54:30.161Z,6.60
2019-02-07T06:55:30.161Z,6.64
2019-02-07T06:56:30.149Z,6.60
2019-02-07T06:57:30.152Z,6.60
2019-02-07T06:58:30.124Z,6.63
2019-02-07T06:59:30.158Z,6.67
2019-02-07T07:00:30.089Z,6.65
2019-02-07T07:01:30.101Z,6.75
2019-02-07T07:02:30.099Z,6.68
2019-02-07T07:03:30.061Z,6.74
2019-02-07T07:04:30.047Z,6.73
2019-02-07T07:05:30.033Z,6.74
2019-02-07T07:06:30.025Z,6.74
2019-02-07T07:07:30.034Z,6.73
2019-02-07T07:08:30.032Z,6.83
2019-02-07T07:09:29.989Z,6.79
2019-02-07T07:10:29.980Z,6.79
2019-02-07T07:11:29.978Z,6.74
2019-02-07T07:12:29.953Z,6.74
2019-02-07T07:13:29.967Z,6.71
2019-02-07T07:14:29.931Z,6.75
2019-02-07T07:15:29.924Z,6.75
2019-02-07T07:16:29.912Z,6.79
2019-02-07T07:17:29.910Z,6.75
2019-02-07T07:18:29.913Z,6.70
2019-02-07T07:19:29.896Z,6.75
2019-02-07T07:20:29.874Z,6.74
2019-02-07T07:21:29.869Z,6.78
2019-02-07T07:22:29.846Z,6.70
2019-02-07T07:23:29.856Z,6.74
2019-02-07T07:24:29.819Z,6.71
2019-02-07T07:25:29.809Z,6.70
2019-02-07T07:26:29.807Z,6.75
2019-02-07T07:27:29.787Z,6.74
2019-02-07T07:28:29.797Z,6.75
2019-02-07T07:29:29.771Z,6.78
2019-02-07T07:30:29.755Z,6.73
2019-02-07T07:31:29.741Z,6.70
2019-02-07T07:32:29.731Z,6.74
2019-02-07T07:33:29.754Z,6.74
2019-02-07T07:34:29.732Z,6.70
2019-02-07T07:35:29.696Z,6.78
2019-02-07T07:36:29.690Z,6.83
2019-02-07T07:37:29.680Z,6.78
2019-02-07T07:38:29.705Z,6.82
2019-02-07T07:39:29.658Z,6.73
2019-02-07T07:40:29.644Z,6.82
2019-02-07T07:41:29.638Z,6.86
2019-02-07T07:42:29.625Z,6.85
2019-02-07T07:43:30.490Z,6.79
2019-02-07T07:44:29.632Z,6.82
2019-02-07T07:45:29.594Z,6.85
2019-02-07T07:46:29.582Z,6.96
2019-02-07T07:47:36.016Z,6.86
2019-02-07T07:48:29.582Z,6.86
2019-02-07T07:49:29.575Z,6.92
2019-02-07T07:50:29.538Z,6.89
2019-02-07T07:51:29.576Z,6.97
2019-02-07T07:52:29.523Z,6.97
2019-02-07T07:53:29.527Z,6.96
2019-02-07T07:54:29.520Z,6.93
2019-02-07T07:55:29.477Z,6.96
2019-02-07T07:56:29.488Z,6.91
2019-02-07T07:57:29.455Z,6.96
2019-02-07T07:58:29.482Z,6.96
2019-02-07T07:59:29.472Z,6.99
2019-02-07T08:00:29.427Z,6.83
2019-02-07T08:01:29.410Z,6.91
2019-02-07T08:02:29.412Z,6.89
2019-02-07T08:03:29.387Z,6.96
2019-02-07T08:04:29.403Z,6.96
2019-02-07T08:05:29.377Z,6.85
2019-02-07T08:06:29.360Z,6.89
2019-02-07T08:07:29.348Z,6.89
2019-02-07T08:08:29.337Z,6.89
2019-02-07T08:09:29.320Z,6.88
2019-02-07T08:10:29.336Z,6.86
2019-02-07T08:11:29.303Z,6.89
2019-02-07T08:12:29.318Z,6.82
2019-02-07T08:13:29.280Z,6.85
2019-02-07T08:14:29.279Z,6.85
2019-02-07T08:15:29.278Z,6.91
2019-02-07T08:16:29.259Z,6.85
2019-02-07T08:17:29.235Z,6.85
2019-02-07T08:18:29.225Z,6.88
2019-02-07T08:19:29.214Z,6.92
2019-02-07T08:20:29.245Z,6.88
2019-02-07T08:21:29.187Z,6.93
2019-02-07T08:22:29.184Z,6.89
2019-02-07T08:23:29.166Z,6.91
2019-02-07T08:24:29.154Z,6.97
2019-02-07T08:25:29.184Z,6.96
2019-02-07T08:26:29.145Z,6.97
2019-02-07T08:27:29.151Z,7.01
2019-02-07T08:28:29.111Z,7.00
2019-02-07T08:29:29.127Z,7.06
2019-02-07T08:30:36.179Z,7.04
2019-02-07T08:31:30.079Z,7.11
2019-02-07T08:32:29.155Z,7.10
2019-02-07T08:33:29.057Z,7.01
2019-02-07T08:34:29.068Z,7.03
2019-02-07T08:35:29.030Z,7.13
2019-02-07T08:36:29.206Z,7.01
2019-02-07T08:37:29.037Z,7.18
2019-02-07T08:38:28.997Z,7.08
2019-02-07T08:39:28.993Z,7.06
2019-02-07T08:40:29.037Z,7.13
2019-02-07T08:41:28.980Z,7.16
2019-02-07T08:42:28.997Z,7.10
2019-02-07T08:43:28.946Z,7.03
2019-02-07T08:44:28.938Z,7.11
2019-02-07T08:45:28.924Z,7.10
2019-02-07T08:46:28.952Z,7.11
2019-02-07T08:47:28.951Z,7.08
2019-02-07T08:48:28.886Z,7.11
2019-02-07T08:49:28.877Z,7.06
2019-02-07T08:50:28.864Z,7.10
2019-02-07T08:51:28.852Z,7.08
2019-02-07T08:52:28.884Z,7.00
2019-02-07T08:53:28.832Z,7.08
2019-02-07T08:54:28.832Z,7.08
2019-02-07T08:55:28.807Z,7.08
2019-02-07T08:56:28.800Z,7.01
2019-02-07T08:57:28.806Z,7.04
2019-02-07T08:58:28.819Z,7.16
2019-02-07T08:59:28.770Z,7.10
2019-02-07T09:00:28.755Z,7.13
2019-02-07T09:01:28.761Z,7.08
2019-02-07T09:02:28.735Z,7.10
2019-02-07T09:03:28.743Z,7.01
2019-02-07T09:04:28.814Z,7.07
2019-02-07T09:05:28.695Z,7.04
2019-02-07T09:06:28.705Z,7.01
2019-02-07T09:07:28.674Z,7.08
2019-02-07T09:08:28.701Z,7.03
2019-02-07T09:09:28.651Z,7.06
2019-02-07T09:10:28.647Z,7.10
2019-02-07T09:11:28.631Z,7.15
2019-02-07T09:12:28.620Z,7.11
2019-02-07T09:13:28.632Z,7.10
2019-02-07T09:14:28.595Z,7.16
2019-02-07T09:15:28.584Z,7.18
2019-02-07T09:16:28.575Z,7.21
2019-02-07T09:17:28.572Z,7.24
2019-02-07T09:18:28.579Z,7.34
2019-02-07T09:19:28.537Z,7.33
2019-02-07T09:20:28.540Z,7.24
2019-02-07T09:21:28.518Z,7.26
2019-02-07T09:22:28.507Z,7.24
2019-02-07T09:23:28.520Z,7.31
2019-02-07T09:24:28.489Z,7.33
2019-02-07T09:25:28.479Z,7.21
2019-02-07T09:26:28.466Z,7.26
2019-02-07T09:27:28.453Z,7.25
2019-02-07T09:28:28.470Z,7.22
2019-02-07T09:29:28.430Z,7.29
2019-02-07T09:30:28.418Z,7.29
2019-02-07T09:31:28.409Z,7.36
2019-02-07T09:32:28.397Z,7.37
2019-02-07T09:33:28.383Z,7.34
2019-02-07T09:34:28.400Z,7.46
2019-02-07T09:35:28.366Z,7.33
2019-02-07T09:36:28.351Z,7.50
2019-02-07T09:37:28.338Z,7.54
2019-02-07T09:38:28.328Z,7.49
2019-02-07T09:39:28.357Z,7.58
2019-02-07T09:40:28.301Z,7.62
2019-02-07T09:41:28.292Z,7.61
2019-02-07T09:42:28.286Z,7.61
2019-02-07T09:43:28.278Z,7.66
2019-02-07T09:44:28.278Z,7.71
2019-02-07T09:45:28.243Z,7.74
2019-02-07T09:46:28.240Z,7.77
2019-02-07T09:47:28.221Z,7.77
2019-02-07T09:48:28.221Z,7.86
2019-02-07T09:49:28.236Z,7.91
2019-02-07T09:50:28.194Z,7.99
2019-02-07T09:51:28.301Z,7.98
2019-02-07T09:52:28.166Z,7.92
2019-02-07T09:53:28.165Z,7.92
2019-02-07T09:54:28.184Z,7.95
2019-02-07T09:55:28.131Z,8.09
2019-02-07T09:56:28.135Z,7.95
2019-02-07T09:57:28.113Z,8.04
2019-02-07T09:58:28.102Z,8.02
2019-02-07T09:59:28.118Z,8.13
2019-02-07T10:00:28.109Z,8.21
2019-02-07T10:01:28.065Z,8.34
2019-02-07T10:02:28.057Z,8.19
2019-02-07T10:03:28.052Z,8.14
2019-02-07T10:04:28.039Z,8.21
2019-02-07T10:05:28.047Z,8.23
2019-02-07T10:06:28.021Z,8.20
2019-02-07T10:07:28.009Z,8.39
2019-02-07T10:08:27.997Z,8.35
2019-02-07T10:09:27.981Z,8.41
2019-02-07T10:10:28.012Z,8.41
2019-02-07T10:11:27.955Z,8.47
2019-02-07T10:12:27.949Z,8.72
2019-02-07T10:13:27.943Z,9.06
2019-02-07T10:14:27.922Z,9.73
2019-02-07T10:15:27.914Z,9.94
2019-02-07T10:16:27.930Z,9.52
2019-02-07T10:17:27.887Z,10.24
2019-02-07T10:18:33.187Z,10.83
2019-02-07T10:19:28.868Z,10.26
2019-02-07T10:20:27.857Z,9.87
2019-02-07T10:21:27.882Z,9.59
2019-02-07T10:22:27.832Z,9.26
2019-02-07T10:23:27.821Z,9.08
2019-02-07T10:24:27.810Z,8.95
2019-02-07T10:25:27.816Z,8.90
2019-02-07T10:26:27.809Z,9.11
2019-02-07T10:27:27.782Z,9.94
2019-02-07T10:28:27.765Z,11.04
2019-02-07T10:29:27.760Z,11.46
2019-02-07T10:30:27.758Z,12.55
2019-02-07T10:31:27.777Z,13.01
2019-02-07T10:32:27.773Z,13.46
2019-02-07T10:33:27.717Z,13.39
2019-02-07T10:34:27.701Z,12.88
2019-02-07T10:35:27.694Z,11.77
2019-02-07T10:36:27.680Z,10.48
2019-02-07T10:37:27.710Z,10.08
2019-02-07T10:38:27.658Z,9.69
2019-02-07T10:39:27.641Z,9.51
2019-02-07T10:40:27.644Z,9.26
2019-02-07T10:41:27.643Z,9.32
2019-02-07T10:42:27.645Z,9.98
2019-02-07T10:43:27.597Z,9.63
2019-02-07T10:44:27.593Z,9.85
2019-02-07T10:45:27.576Z,9.63
2019-02-07T10:46:27.564Z,9.54
2019-02-07T10:47:30.378Z,9.40
2019-02-07T10:48:27.563Z,9.27
2019-02-07T10:49:27.532Z,9.26
2019-02-07T10:50:27.524Z,9.34
2019-02-07T10:51:27.521Z,9.34
2019-02-07T10:52:27.499Z,9.26
2019-02-07T10:53:27.524Z,9.27
2019-02-07T10:54:27.490Z,9.52
2019-02-07T10:55:27.483Z,9.84
2019-02-07T10:56:27.463Z,9.90
2019-02-07T10:57:27.451Z,10.09
2019-02-07T10:58:27.478Z,10.55
2019-02-07T10:59:27.428Z,10.45
2019-02-07T11:00:27.418Z,12.00
2019-02-07T11:01:27.406Z,13.02
2019-02-07T11:02:27.404Z,13.26
2019-02-07T11:03:27.422Z,13.65
2019-02-07T11:04:27.370Z,14.45
2019-02-07T11:05:27.362Z,13.40
2019-02-07T11:06:27.346Z,13.01
2019-02-07T11:07:27.353Z,13.39
2019-02-07T11:08:27.320Z,12.61
2019-02-07T11:09:27.341Z,11.87
2019-02-07T11:10:27.305Z,11.03
2019-02-07T11:11:27.287Z,11.99
2019-02-07T11:12:27.281Z,13.49
2019-02-07T11:13:27.270Z,13.16
2019-02-07T11:14:27.276Z,12.32
2019-02-07T11:15:27.249Z,11.69
2019-02-07T11:16:27.241Z,11.09
2019-02-07T11:17:27.223Z,10.67
2019-02-07T11:18:27.210Z,10.36
2019-02-07T11:19:27.240Z,11.67
2019-02-07T11:20:27.211Z,11.58
2019-02-07T11:21:27.191Z,12.96
2019-02-07T11:22:27.171Z,13.19
2019-02-07T11:23:27.157Z,13.27
2019-02-07T11:24:27.181Z,13.53
2019-02-07T11:25:27.167Z,12.47
2019-02-07T11:26:27.133Z,13.24
2019-02-07T11:27:27.125Z,13.20
2019-02-07T11:28:27.097Z,13.21
2019-02-07T11:29:27.119Z,13.63
2019-02-07T11:30:27.108Z,13.72
2019-02-07T11:31:27.076Z,12.68
2019-02-07T11:32:27.062Z,11.91
2019-02-07T11:33:27.050Z,11.56
2019-02-07T11:34:27.064Z,12.00
2019-02-07T11:35:27.052Z,11.48
2019-02-07T11:36:27.015Z,11.40
2019-02-07T11:37:27.002Z,11.12
2019-02-07T11:38:26.996Z,11.54
2019-02-07T11:39:29.686Z,11.19
2019-02-07T11:40:27.003Z,10.82
2019-02-07T11:41:26.963Z,11.71
2019-02-07T11:42:26.944Z,11.66
2019-02-07T11:43:26.930Z,11.37
2019-02-07T11:44:26.928Z,11.46
2019-02-07T11:45:26.935Z,12.17
2019-02-07T11:46:26.900Z,12.35
2019-02-07T11:47:26.892Z,12.48
2019-02-07T11:48:26.879Z,11.74
2019-02-07T11:49:26.867Z,11.49
2019-02-07T11:50:32.051Z,11.40
2019-02-07T11:51:26.845Z,11.70
2019-02-07T11:52:26.834Z,12.61
2019-02-07T11:53:26.819Z,13.67
2019-02-07T11:54:26.811Z,13.83
2019-02-07T11:55:27.520Z,13.51
2019-02-07T11:56:26.790Z,12.80
2019-02-07T11:57:26.776Z,11.96
2019-02-07T11:59:27.891Z,10.91
2019-02-07T12:00:26.746Z,10.87
2019-02-07T12:01:26.823Z,11.04
2019-02-07T12:02:26.730Z,11.55
2019-02-07T12:03:26.714Z,11.79
2019-02-07T12:04:26.713Z,11.84
2019-02-07T12:05:26.694Z,12.25
2019-02-07T12:06:26.703Z,12.65
2019-02-07T12:07:26.663Z,13.40
2019-02-07T12:08:26.654Z,12.54
2019-02-07T12:09:26.648Z,12.77
2019-02-07T12:10:26.639Z,12.54
2019-02-07T12:11:26.655Z,12.73
2019-02-07T12:12:26.609Z,12.83
2019-02-07T12:13:26.599Z,13.06
2019-02-07T12:14:26.593Z,13.11
2019-02-07T12:15:26.685Z,13.23
2019-02-07T12:16:26.623Z,12.81
2019-02-07T12:18:27.663Z,13.01
2019-02-07T12:19:26.535Z,12.63
2019-02-07T12:20:26.522Z,12.61
2019-02-07T12:21:26.547Z,12.00
2019-02-07T12:22:26.534Z,12.25
2019-02-07T12:23:26.491Z,13.40
2019-02-07T12:24:26.483Z,13.49
2019-02-07T12:25:26.490Z,13.27
2019-02-07T12:26:26.452Z,13.04
2019-02-07T12:27:26.472Z,12.46
2019-02-07T12:28:26.447Z,12.77
2019-02-07T12:29:26.420Z,12.04
2019-02-07T12:30:26.410Z,12.13
2019-02-07T12:31:26.398Z,12.14
2019-02-07T12:32:26.415Z,11.69
2019-02-07T12:33:26.377Z,11.28
2019-02-07T12:34:26.368Z,12.14
2019-02-07T12:35:26.356Z,12.71
2019-02-07T12:36:26.343Z,12.30
2019-02-07T12:37:26.356Z,12.44
2019-02-07T12:38:26.334Z,12.96
2019-02-07T12:39:26.311Z,13.47
2019-02-07T12:40:26.306Z,13.40
2019-02-07T12:41:26.289Z,13.21
2019-02-07T12:42:26.309Z,13.36
2019-02-07T12:43:26.266Z,13.39
2019-02-07T12:44:27.482Z,13.60
2019-02-07T12:45:26.240Z,13.40
2019-02-07T12:46:26.233Z,12.95
2019-02-07T12:47:26.269Z,12.55
2019-02-07T12:48:26.336Z,12.62
2019-02-07T12:49:29.378Z,12.32
2019-02-07T12:50:26.194Z,13.24
2019-02-07T12:51:26.193Z,13.40
2019-02-07T12:52:26.164Z,12.76
2019-02-07T12:53:26.197Z,13.11
2019-02-07T12:54:26.145Z,12.87
2019-02-07T12:55:26.890Z,12.62
2019-02-07T12:56:26.119Z,12.26
2019-02-07T12:57:26.117Z,12.54
2019-02-07T12:58:26.105Z,12.98
2019-02-07T12:59:26.113Z,12.32
2019-02-07T13:00:26.079Z,12.26
2019-02-07T13:01:26.066Z,13.20
2019-02-07T13:02:26.059Z,13.85
2019-02-07T13:03:26.070Z,14.44
2019-02-07T13:04:26.066Z,13.85
2019-02-07T13:05:26.024Z,12.73
2019-02-07T13:06:26.011Z,12.04
2019-02-07T13:07:26.016Z,11.73
2019-02-07T13:08:25.990Z,12.00
2019-02-07T13:09:26.009Z,11.62
2019-02-07T13:10:25.968Z,11.28
2019-02-07T13:11:25.982Z,11.05
2019-02-07T13:12:25.959Z,11.03
2019-02-07T13:13:25.975Z,11.19
2019-02-07T13:14:26.061Z,11.01
2019-02-07T13:15:25.954Z,11.76